• Join FlightAware (Why Join?)
  • Login
  • US Flag 
10:24AM EDT


 

Airport Tracker/Info


-or-


 

Live Flight TrackerFlight Track Log ✈ RPA3468 ✈ 14-May-2013 ✈ KDCA - KBTV

Flight Track Log - Related Links

Times and Time Zones

All times are in EDT time to prevent confusion due to time zone crossing. See the RPA3468 flight status page for this flight to view local times or setup timezone preferences in your user account.

Time Position Orientation Groundspeed Altitude Reporting Facility
EDT Latitude Longitude Course Direction KTS MPH feet Rate Location/Type
07:30PM 38.8167 -77.0333 83° East 151 174 1,900  Level Potomac TRACON
07:31PM 38.7667 -77.0167 165° South 249 287 4,100 2,880 Climbing Potomac TRACON
07:33PM 39.0179 -76.5628 67° East  Level FlightAware Approximate
07:33PM 38.8169 -76.8811 65° Northeast 280 322 9,700  Level Washington Center
07:34PM 39.0627 -76.4433 63° Northeast  Level FlightAware Approximate
07:34PM 38.8761 -76.7994 47° Northeast 294 338 12,300  Level Washington Center
07:35PM 39.1123 -76.3269 61° Northeast  Level FlightAware Approximate
07:35PM 38.9292 -76.7017 55° Northeast 306 352 15,300  Level Washington Center
07:36PM 39.1504 -76.2123 83° East  Level FlightAware Approximate
07:36PM 38.9739 -76.5928 62° Northeast 327 376 17,800  Level Washington Center
07:37PM 39.0122 -76.4653 69° East 365 420 20,200 2,460 Climbing Washington Center
07:38PM 39.0508 -76.3347 69° East 372 428 22,800 1,380 Climbing Washington Center
07:39PM 39.0911 -76.2042 68° East 383 441 23,000 60 Climbing Washington Center
07:40PM 39.1353 -76.0733 66° East 388 447 23,000 660 Level Washington Center
07:41PM 39.1733 -75.9397 70° East 393 452 24,300 1,560 Climbing Washington Center
07:42PM 39.2319 -75.8275 56° Northeast 386 444 26,200 1,860 Climbing Washington Center
07:43PM 39.3050 -75.7364 44° Northeast 369 425 28,100 1,560 Climbing Washington Center
07:44PM 39.3781 -75.6400 46° Northeast 369 425 29,300 1,200 Climbing Washington Center
07:45PM 39.4553 -75.5406 45° Northeast 369 425 30,600 1,440 Climbing Washington Center
07:48PM 39.6367 -75.3050 45° Northeast 382 440 34,400 1,200 Climbing New York Center
07:49PM 39.7092 -75.2072 46° Northeast 377 434 35,000 300 Climbing New York Center
07:50PM 39.7842 -75.0958 49° Northeast 389 448 35,000  Level New York Center
07:51PM 39.8611 -74.9869 47° Northeast 401 461 35,000  Level New York Center
07:52PM 39.9356 -74.8806 48° Northeast 406 467 35,000  Level New York Center
07:53PM 40.0144 -74.7714 47° Northeast 400 460 35,000  Level New York Center
07:54PM 40.0928 -74.6700 45° Northeast 405 466 35,000  Level New York Center
07:55PM 40.1900 -74.6347 15° North 357 411 35,000  Level New York Center
07:56PM 40.2889 -74.6022 14° North 357 411 35,000  Level New York Center
07:57PM 40.3856 -74.5747 12° North 352 405 35,000  Level New York Center
07:59PM 40.6186 -74.4961 14° North 345 397 35,000  Level Boston Center
08:00PM 40.7169 -74.4636 14° North 345 397 35,000  Level Boston Center
08:01PM 40.8133 -74.4339 13° North 350 403 35,000  Level Boston Center
08:02PM 40.9308 -74.3961 14° North 356 410 35,000  Level Boston Center
08:03PM 41.0503 -74.3639 11° North 356 410 35,000  Level Boston Center
08:05PM 41.1508 -74.3311 14° North 356 410 35,000  Level Boston Center
08:06PM 41.2767 -74.2853 15° North 356 410 35,000  Level Boston Center
08:07PM 41.3750 -74.2519 14° North 361 415 35,000  Level Boston Center
08:08PM 41.4736 -74.2189 14° North 361 415 35,000  Level Boston Center
08:09PM 41.5658 -74.1908 13° North 361 415 35,000  Level Boston Center
08:10PM 41.6664 -74.1547 15° North 361 415 35,000  Level Boston Center
08:11PM 41.7625 -74.1239 13° North 361 415 35,000  Level Boston Center
08:12PM 41.8589 -74.0903 15° North 361 415 35,000  Level Boston Center
08:13PM 41.9617 -74.0567 14° North 361 415 35,000  Level Boston Center
08:14PM 42.0622 -74.0228 14° North 361 415 35,000  Level Boston Center
08:15PM 42.1606 -73.9889 14° North 361 415 35,000  Level Boston Center
08:16PM 42.2631 -73.9522 15° North 361 415 35,000  Level Boston Center
08:17PM 42.3658 -73.9181 14° North 367 422 35,000  Level Boston Center
08:18PM 42.4706 -73.8811 15° North 373 429 35,000  Level Boston Center
08:19PM 42.5708 -73.8469 14° North 378 435 35,000  Level Boston Center
08:20PM 42.6714 -73.8097 15° North 378 435 35,000  Level Boston Center
08:21PM 42.7886 -73.7669 15° North 378 435 35,000 -900 Level Boston Center
08:22PM 42.8869 -73.7322 15° North 378 435 33,200 -2,100 Descending Boston Center
08:23PM 42.9833 -73.6972 15° North 366 421 30,900 -2,400 Descending Boston Center
08:24PM 43.0817 -73.6625 14° North 359 413 28,400 -2,280 Descending Boston Center
08:25PM 43.1758 -73.6272 15° North 369 425 26,400 -2,280 Descending Boston Center
08:26PM 43.2803 -73.5894 15° North 374 430 23,900 -2,220 Descending Boston Center
08:27PM 43.3828 -73.5542 14° North 379 436 22,000 -960 Descending Boston Center
08:28PM 43.4833 -73.5161 15° North 379 436 22,000 -1,020 Level Boston Center
08:29PM 43.5836 -73.4806 14° North 379 436 20,000 -2,100 Descending Boston Center
08:30PM 43.6797 -73.4478 14° North 369 425 17,800 -2,100 Descending Boston Center
08:31PM 43.7694 -73.4175 14° North 343 395 15,800 -2,220 Descending Boston Center
08:32PM 43.8594 -73.3817 16° North 332 382 13,400 -2,400 Descending Boston Center
08:33PM 43.9453 -73.3514 14° North 326 375 11,100 -2,340 Descending Boston Center
08:34PM 44.0267 -73.3208 15° North 285 328 8,800 -2,460 Descending Boston Center
08:35PM 44.0978 -73.2958 14° North 271 312 6,200 -1,440 Descending Boston Center
08:36PM 44.1500 -73.2733 17° North 271 312 6,000 -1,020 Descending Boston Center
08:37PM 44.2275 -73.2194 26° Northeast 241 277 4,200 -1,020 Descending Boston Center
08:38PM 44.2778 -73.1678 36° Northeast 229 264 4,000 -300 Descending Boston Center
08:39PM 44.3219 -73.1219 37° Northeast 211 243 3,600 -300 Descending Boston Center
08:40PM 44.3636 -73.0819 34° Northeast 192 221 3,400 -240 Descending Boston Center